Time;durP1;ratioP1;P1;durP2;ratioP2;P2;SDS_P1;SDS_P2;PMS_P1;PMS_P2;Temp;Humidity;BMP_temperature;BMP_pressure;BME280_temperature;BME280_humidity;BME280_pressure;Samples;Min_cycle;Max_cycle;Signal;HPM_P1;HPM_P2
2023/06/08 00:01:44;;;;;;;33.00;15.73;;;;;;;;;;5070259;28;20044;-59
2023/06/08 00:04:10;;;;;;;33.20;15.43;;;;;;;;;;5070867;28;20063;-59
2023/06/08 00:06:37;;;;;;;29.90;15.40;;;;;;;;;;5053265;28;20174;-59
2023/06/08 00:09:05;;;;;;;31.27;15.70;;;;;;;;;;5070563;28;20040;-59
2023/06/08 00:11:32;;;;;;;31.73;15.80;;;;;;;;;;5069974;28;20049;-59
2023/06/08 00:13:58;;;;;;;35.30;16.10;;;;;;;;;;5069706;28;20048;-59
2023/06/08 00:16:24;;;;;;;30.87;16.13;;;;;;;;;;5070526;28;20098;-59
2023/06/08 00:18:56;;;;;;;29.80;15.27;;;;;;;;;;5070218;28;20037;-59
2023/06/08 00:21:22;;;;;;;30.57;15.00;;;;;;;;;;5070186;28;20098;-59
2023/06/08 00:23:49;;;;;;;26.67;14.63;;;;;;;;;;5070131;28;20040;-59
2023/06/08 00:26:15;;;;;;;30.10;16.17;;;;;;;;;;5069854;28;20048;-59
2023/06/08 00:28:41;;;;;;;26.10;15.90;;;;;;;;;;5069004;28;20414;-59
2023/06/08 00:31:07;;;;;;;31.47;15.67;;;;;;;;;;5070011;28;20126;-60
2023/06/08 00:33:34;;;;;;;33.87;14.50;;;;;;;;;;5070201;28;20167;-59
2023/06/08 00:36:02;;;;;;;28.73;15.53;;;;;;;;;;5069750;28;20052;-59
2023/06/08 00:38:29;;;;;;;31.07;14.40;;;;;;;;;;5069926;28;20133;-59
2023/06/08 00:40:55;;;;;;;27.10;15.00;;;;;;;;;;5069286;28;20040;-59
2023/06/08 00:43:21;;;;;;;29.37;13.40;;;;;;;;;;5068917;28;20092;-59
2023/06/08 00:45:47;;;;;;;25.60;13.03;;;;;;;;;;5069016;28;20063;-59
2023/06/08 00:48:13;;;;;;;31.73;13.63;;;;;;;;;;5068864;28;20047;-60
2023/06/08 00:50:41;;;;;;;24.87;12.80;;;;;;;;;;5067232;28;20056;-59
2023/06/08 00:53:07;;;;;;;27.30;12.60;;;;;;;;;;5068261;28;20466;-59
2023/06/08 00:55:33;;;;;;;23.13;12.30;;;;;;;;;;5069166;28;20055;-60
2023/06/08 00:58:00;;;;;;;23.97;12.20;;;;;;;;;;5068823;28;20366;-60
2023/06/08 01:00:27;;;;;;;27.23;12.43;;;;;;;;;;5069006;28;20139;-59
2023/06/08 01:02:55;;;;;;;20.83;11.03;;;;;;;;;;5069681;28;20088;-60
2023/06/08 01:05:21;;;;;;;22.23;11.37;;;;;;;;;;5069073;28;20052;-59
2023/06/08 01:07:55;;;;;;;24.77;12.30;;;;;;;;;;5069524;28;20048;-60
2023/06/08 01:10:37;;;;;;;23.83;11.57;;;;;;;;;;5068598;28;20407;-59
2023/06/08 01:13:03;;;;;;;19.67;10.90;;;;;;;;;;5067568;28;20051;-59
2023/06/08 01:15:33;;;;;;;21.67;10.83;;;;;;;;;;5068623;28;20052;-59
2023/06/08 01:18:07;;;;;;;24.77;12.60;;;;;;;;;;5068980;28;20102;-59
2023/06/08 01:20:34;;;;;;;27.07;11.53;;;;;;;;;;5069118;28;20045;-59
2023/06/08 01:23:00;;;;;;;23.47;11.10;;;;;;;;;;5068716;28;20058;-59
2023/06/08 01:25:30;;;;;;;18.90;12.10;;;;;;;;;;5068840;28;20117;-59
2023/06/08 01:28:15;;;;;;;23.10;11.67;;;;;;;;;;5068727;28;20044;-59
2023/06/08 01:30:42;;;;;;;23.30;12.20;;;;;;;;;;5068865;28;20171;-59
2023/06/08 01:33:10;;;;;;;19.90;11.33;;;;;;;;;;5068270;28;20048;-60
2023/06/08 01:35:37;;;;;;;22.87;11.07;;;;;;;;;;5068586;28;20048;-59
2023/06/08 01:38:11;;;;;;;31.80;12.57;;;;;;;;;;5068255;28;20044;-60
2023/06/08 01:40:43;;;;;;;28.90;11.77;;;;;;;;;;5068775;28;20478;-59
2023/06/08 01:43:10;;;;;;;29.10;12.93;;;;;;;;;;5068414;28;20063;-60
2023/06/08 01:45:38;;;;;;;23.97;12.63;;;;;;;;;;5068530;28;20487;-59
2023/06/08 01:48:06;;;;;;;31.00;13.17;;;;;;;;;;5067565;28;20045;-59
2023/06/08 01:50:33;;;;;;;32.07;15.27;;;;;;;;;;5068006;28;20495;-59
2023/06/08 01:53:01;;;;;;;29.97;12.83;;;;;;;;;;5067681;28;20056;-59
2023/06/08 01:55:30;;;;;;;24.80;12.63;;;;;;;;;;5050535;28;20044;-60
2023/06/08 01:57:58;;;;;;;31.93;14.63;;;;;;;;;;5067810;28;20088;-60
2023/06/08 02:00:25;;;;;;;23.20;12.80;;;;;;;;;;5068150;28;20044;-59
2023/06/08 02:02:52;;;;;;;21.43;12.97;;;;;;;;;;5068607;28;20044;-59
2023/06/08 02:05:18;;;;;;;26.83;13.00;;;;;;;;;;5068354;28;20505;-60
2023/06/08 02:07:46;;;;;;;28.83;13.70;;;;;;;;;;5068625;28;20072;-60
2023/06/08 02:10:13;;;;;;;32.97;13.63;;;;;;;;;;5067251;28;20037;-60
2023/06/08 02:12:39;;;;;;;27.87;14.23;;;;;;;;;;5068392;28;20088;-60
2023/06/08 02:15:06;;;;;;;30.50;14.10;;;;;;;;;;5067700;28;20036;-60
2023/06/08 02:17:36;;;;;;;35.40;15.50;;;;;;;;;;5068266;28;20049;-59
2023/06/08 02:20:07;;;;;;;31.67;15.60;;;;;;;;;;5067993;28;20044;-60
2023/06/08 02:22:36;;;;;;;38.17;16.63;;;;;;;;;;5067760;28;20071;-60
2023/06/08 02:25:07;;;;;;;26.77;15.37;;;;;;;;;;5068113;28;20045;-60
2023/06/08 02:27:37;;;;;;;30.20;15.90;;;;;;;;;;5068134;28;20040;-60
2023/06/08 02:30:04;;;;;;;27.50;16.03;;;;;;;;;;5067464;28;20037;-59
2023/06/08 02:32:32;;;;;;;28.17;15.97;;;;;;;;;;5067714;28;20050;-60
2023/06/08 02:35:00;;;;;;;35.97;17.07;;;;;;;;;;5067079;28;20044;-60
2023/06/08 02:37:26;;;;;;;31.73;15.87;;;;;;;;;;5068203;28;20083;-59
2023/06/08 02:39:52;;;;;;;33.00;16.50;;;;;;;;;;5068094;28;20044;-60
2023/06/08 02:42:18;;;;;;;28.13;15.17;;;;;;;;;;5068104;28;20048;-60
2023/06/08 02:44:45;;;;;;;37.67;18.17;;;;;;;;;;5067431;28;20529;-59
2023/06/08 02:47:11;;;;;;;34.43;16.20;;;;;;;;;;5066797;28;20081;-60
2023/06/08 02:49:38;;;;;;;32.80;17.20;;;;;;;;;;5066998;28;20551;-59
2023/06/08 02:52:04;;;;;;;34.50;18.27;;;;;;;;;;5067445;28;20052;-59
2023/06/08 02:54:30;;;;;;;29.07;16.97;;;;;;;;;;5068071;28;20044;-60
2023/06/08 02:56:56;;;;;;;30.17;17.53;;;;;;;;;;5067864;28;20063;-59
2023/06/08 02:59:22;;;;;;;28.20;20.17;;;;;;;;;;5068370;28;20052;-60
2023/06/08 03:01:53;;;;;;;34.23;20.40;;;;;;;;;;5066296;28;20153;-59
2023/06/08 03:04:22;;;;;;;32.40;18.37;;;;;;;;;;5068124;28;20111;-60
2023/06/08 03:06:53;;;;;;;32.63;19.40;;;;;;;;;;5067049;28;20055;-60
2023/06/08 03:09:20;;;;;;;37.93;18.50;;;;;;;;;;5068346;28;20048;-59
2023/06/08 03:11:46;;;;;;;34.83;18.83;;;;;;;;;;5068066;28;20378;-59
2023/06/08 03:14:12;;;;;;;35.77;18.90;;;;;;;;;;5067396;28;20106;-60
2023/06/08 03:16:41;;;;;;;33.87;17.57;;;;;;;;;;5067934;28;20052;-60
2023/06/08 03:19:07;;;;;;;30.57;17.07;;;;;;;;;;5067264;28;20378;-60
2023/06/08 03:21:33;;;;;;;31.60;17.90;;;;;;;;;;5067827;28;20405;-59
2023/06/08 03:23:59;;;;;;;33.53;18.53;;;;;;;;;;5067720;28;20058;-60
2023/06/08 03:26:26;;;;;;;40.83;19.10;;;;;;;;;;5065877;28;20052;-60
2023/06/08 03:28:52;;;;;;;36.77;18.70;;;;;;;;;;5067469;28;20059;-60
2023/06/08 03:31:20;;;;;;;31.97;18.30;;;;;;;;;;5067450;28;20044;-60
2023/06/08 03:33:47;;;;;;;36.43;18.83;;;;;;;;;;5067089;28;20060;-60
2023/06/08 03:36:13;;;;;;;30.70;18.07;;;;;;;;;;5069607;28;20117;-60
2023/06/08 03:38:39;;;;;;;35.90;18.50;;;;;;;;;;5071130;28;20060;-60
2023/06/08 03:41:05;;;;;;;36.83;17.73;;;;;;;;;;5070913;28;20056;-60
2023/06/08 03:43:31;;;;;;;36.93;18.73;;;;;;;;;;5070410;28;20052;-59
2023/06/08 03:45:58;;;;;;;34.27;17.93;;;;;;;;;;5070576;28;20495;-60
2023/06/08 03:48:25;;;;;;;28.20;17.17;;;;;;;;;;5069546;28;20049;-59
2023/06/08 03:50:51;;;;;;;29.40;18.00;;;;;;;;;;5070370;28;20062;-59
2023/06/08 03:53:17;;;;;;;34.67;18.13;;;;;;;;;;5070760;28;20127;-59
2023/06/08 03:55:44;;;;;;;30.20;15.70;;;;;;;;;;5070794;28;20043;-60
2023/06/08 03:58:13;;;;;;;34.27;17.20;;;;;;;;;;5070166;28;20056;-60
2023/06/08 04:00:39;;;;;;;25.73;14.97;;;;;;;;;;5070703;28;20056;-60
2023/06/08 04:03:05;;;;;;;29.90;15.60;;;;;;;;;;5070544;28;20056;-60
2023/06/08 04:05:34;;;;;;;27.63;14.80;;;;;;;;;;5070781;28;20090;-60
2023/06/08 04:08:02;;;;;;;26.00;14.30;;;;;;;;;;5068459;28;20048;-60
2023/06/08 04:10:28;;;;;;;30.13;13.40;;;;;;;;;;5070423;28;20048;-60
2023/06/08 04:12:54;;;;;;;27.00;14.40;;;;;;;;;;5070109;28;20056;-60
2023/06/08 04:15:20;;;;;;;24.07;14.83;;;;;;;;;;5069188;28;20158;-60
2023/06/08 04:17:49;;;;;;;23.40;14.40;;;;;;;;;;5069868;28;20051;-60
2023/06/08 04:20:15;;;;;;;29.27;13.90;;;;;;;;;;5070140;28;20048;-60
2023/06/08 04:22:41;;;;;;;22.80;13.37;;;;;;;;;;5069104;28;20045;-60
2023/06/08 04:25:08;;;;;;;24.73;14.90;;;;;;;;;;5068261;28;20048;-60
2023/06/08 04:27:35;;;;;;;25.37;13.50;;;;;;;;;;5054006;28;20053;-60
2023/06/08 04:30:02;;;;;;;24.57;14.03;;;;;;;;;;5050053;28;20182;-60
2023/06/08 04:32:28;;;;;;;30.60;15.60;;;;;;;;;;5061488;28;20052;-60
2023/06/08 04:34:54;;;;;;;29.87;14.77;;;;;;;;;;5069987;28;20119;-60
2023/06/08 04:37:21;;;;;;;32.90;16.23;;;;;;;;;;5069655;28;22042;-60
2023/06/08 04:39:48;;;;;;;29.43;16.50;;;;;;;;;;5069534;28;20106;-60
2023/06/08 04:42:17;;;;;;;30.03;15.80;;;;;;;;;;5069756;28;20075;-60
2023/06/08 04:44:43;;;;;;;31.03;14.80;;;;;;;;;;5069274;28;20047;-60
2023/06/08 04:47:09;;;;;;;27.60;15.43;;;;;;;;;;5068513;28;20045;-60
2023/06/08 04:49:35;;;;;;;32.10;15.63;;;;;;;;;;5069252;28;20071;-60
2023/06/08 04:52:02;;;;;;;23.87;13.83;;;;;;;;;;5069527;28;20404;-60
2023/06/08 04:54:28;;;;;;;24.97;14.57;;;;;;;;;;5069692;28;20044;-60
2023/06/08 04:56:58;;;;;;;30.53;14.67;;;;;;;;;;5069265;28;20094;-60
2023/06/08 04:59:27;;;;;;;28.80;14.73;;;;;;;;;;5068563;28;20056;-60
2023/06/08 05:01:53;;;;;;;31.30;15.07;;;;;;;;;;5067663;28;20501;-60
2023/06/08 05:04:20;;;;;;;29.10;15.17;;;;;;;;;;5069639;28;20041;-60
2023/06/08 05:06:46;;;;;;;31.10;15.33;;;;;;;;;;5068631;28;20044;-60
2023/06/08 05:09:14;;;;;;;22.63;13.40;;;;;;;;;;5068574;28;20109;-60
2023/06/08 05:11:41;;;;;;;29.30;15.23;;;;;;;;;;5069430;28;20098;-60
2023/06/08 05:14:10;;;;;;;28.40;15.77;;;;;;;;;;5069133;28;20482;-61
2023/06/08 05:16:37;;;;;;;29.33;14.30;;;;;;;;;;5069159;28;20481;-60
2023/06/08 05:19:03;;;;;;;25.67;14.67;;;;;;;;;;5069277;28;20084;-60
2023/06/08 05:21:29;;;;;;;24.33;13.93;;;;;;;;;;5068834;28;20395;-61
2023/06/08 05:23:55;;;;;;;27.63;15.17;;;;;;;;;;5062095;28;20074;-60
2023/06/08 05:26:21;;;;;;;26.13;15.03;;;;;;;;;;5049189;28;20048;-60
2023/06/08 05:28:47;;;;;;;24.67;14.90;;;;;;;;;;5055505;28;20502;-60
2023/06/08 05:31:14;;;;;;;21.77;12.83;;;;;;;;;;5068956;28;20040;-60
2023/06/08 05:33:40;;;;;;;28.73;13.60;;;;;;;;;;5068684;28;20063;-60
2023/06/08 05:36:06;;;;;;;22.40;13.23;;;;;;;;;;5068130;28;20105;-60
2023/06/08 05:38:33;;;;;;;26.47;13.33;;;;;;;;;;5068916;28;20397;-60
2023/06/08 05:40:59;;;;;;;26.90;13.17;;;;;;;;;;5068673;28;20086;-60
2023/06/08 05:43:25;;;;;;;20.77;13.97;;;;;;;;;;5068733;28;20058;-60
2023/06/08 05:45:51;;;;;;;23.70;14.70;;;;;;;;;;5068666;28;20045;-60
2023/06/08 05:48:17;;;;;;;22.93;13.33;;;;;;;;;;5067246;28;20072;-60
2023/06/08 05:50:43;;;;;;;23.57;13.17;;;;;;;;;;5068442;28;20090;-61
2023/06/08 05:53:10;;;;;;;21.20;12.70;;;;;;;;;;5050344;28;20421;-60
2023/06/08 05:55:36;;;;;;;22.97;12.57;;;;;;;;;;5068483;28;20056;-60
2023/06/08 05:58:02;;;;;;;22.70;11.83;;;;;;;;;;5067469;28;20055;-60
2023/06/08 06:00:29;;;;;;;28.27;13.63;;;;;;;;;;5068483;28;20525;-60
2023/06/08 06:02:55;;;;;;;26.83;13.03;;;;;;;;;;5068175;28;20059;-60
2023/06/08 06:05:21;;;;;;;24.70;13.37;;;;;;;;;;5068635;28;20051;-61
2023/06/08 06:07:47;;;;;;;20.90;12.30;;;;;;;;;;5068672;28;20059;-62
2023/06/08 06:10:14;;;;;;;23.00;13.10;;;;;;;;;;5067580;28;20965;-62
2023/06/08 06:12:40;;;;;;;22.93;13.10;;;;;;;;;;5065600;28;20510;-61
2023/06/08 06:15:06;;;;;;;21.70;12.10;;;;;;;;;;5067904;28;20045;-61
2023/06/08 06:17:32;;;;;;;19.47;11.57;;;;;;;;;;5068121;28;20055;-61
2023/06/08 06:19:58;;;;;;;19.93;12.80;;;;;;;;;;5067062;28;20090;-61
2023/06/08 06:22:25;;;;;;;20.77;12.23;;;;;;;;;;5067628;28;20048;-61
2023/06/08 06:24:51;;;;;;;19.10;12.27;;;;;;;;;;5067013;28;20540;-61
2023/06/08 06:27:18;;;;;;;22.80;12.87;;;;;;;;;;5067801;28;20479;-61
2023/06/08 06:29:44;;;;;;;25.37;12.40;;;;;;;;;;5067160;28;20447;-61
2023/06/08 06:32:11;;;;;;;21.73;12.17;;;;;;;;;;5067760;28;20685;-61
2023/06/08 06:34:38;;;;;;;21.47;12.80;;;;;;;;;;5067542;28;20479;-61
2023/06/08 06:37:04;;;;;;;18.53;10.50;;;;;;;;;;5068225;28;20046;-62
2023/06/08 06:39:30;;;;;;;20.03;11.47;;;;;;;;;;5068182;28;20191;-61
2023/06/08 06:41:56;;;;;;;20.40;11.00;;;;;;;;;;5067976;28;20330;-61
2023/06/08 06:44:22;;;;;;;21.30;11.10;;;;;;;;;;5068279;28;20059;-61
2023/06/08 06:46:48;;;;;;;20.40;11.70;;;;;;;;;;5066526;28;20417;-61
2023/06/08 06:49:15;;;;;;;21.10;10.57;;;;;;;;;;5066987;28;20098;-61
2023/06/08 06:51:41;;;;;;;22.10;10.10;;;;;;;;;;5067958;28;20736;-61
2023/06/08 06:54:07;;;;;;;20.30;12.27;;;;;;;;;;5067396;28;20098;-61
2023/06/08 06:56:33;;;;;;;17.13;10.63;;;;;;;;;;5067697;28;20581;-61
2023/06/08 06:58:59;;;;;;;20.27;11.73;;;;;;;;;;5067489;28;20052;-62
2023/06/08 07:01:26;;;;;;;15.30;10.50;;;;;;;;;;5067908;28;20388;-62
2023/06/08 07:03:52;;;;;;;20.77;11.07;;;;;;;;;;5067705;28;20045;-62
2023/06/08 07:06:23;;;;;;;20.87;10.10;;;;;;;;;;5067983;28;20086;-62
2023/06/08 07:08:49;;;;;;;21.97;10.97;;;;;;;;;;5066306;28;20057;-62
2023/06/08 07:11:15;;;;;;;23.97;9.83;;;;;;;;;;5071114;28;20044;-62
2023/06/08 07:13:41;;;;;;;24.27;10.90;;;;;;;;;;5071567;28;20088;-62
2023/06/08 07:16:07;;;;;;;19.60;10.50;;;;;;;;;;5071501;28;20053;-62
2023/06/08 07:18:33;;;;;;;16.83;10.43;;;;;;;;;;5070976;28;20052;-61
2023/06/08 07:20:59;;;;;;;17.47;10.30;;;;;;;;;;5071472;28;20063;-61
2023/06/08 07:23:25;;;;;;;16.33;9.80;;;;;;;;;;5071546;28;20494;-61
2023/06/08 07:25:52;;;;;;;18.97;10.00;;;;;;;;;;5071259;28;20460;-61
2023/06/08 07:28:18;;;;;;;16.37;9.13;;;;;;;;;;5071376;28;20120;-62
2023/06/08 07:30:44;;;;;;;17.63;9.17;;;;;;;;;;5070513;28;20094;-61
2023/06/08 07:33:10;;;;;;;15.73;9.27;;;;;;;;;;5071167;28;20132;-61
2023/06/08 07:35:36;;;;;;;17.20;8.97;;;;;;;;;;5071482;28;20051;-61
2023/06/08 07:38:02;;;;;;;18.70;9.40;;;;;;;;;;5070798;28;20048;-62
2023/06/08 07:40:28;;;;;;;18.23;8.43;;;;;;;;;;5071120;28;20101;-62
2023/06/08 07:42:54;;;;;;;16.83;8.67;;;;;;;;;;5070960;28;20407;-62
2023/06/08 07:45:20;;;;;;;18.73;8.27;;;;;;;;;;5070871;28;20147;-62
2023/06/08 07:47:46;;;;;;;17.77;8.30;;;;;;;;;;5070972;28;20051;-62
2023/06/08 07:50:12;;;;;;;13.93;7.37;;;;;;;;;;5071054;28;20049;-62
2023/06/08 07:52:38;;;;;;;15.03;7.93;;;;;;;;;;5070437;28;20486;-62
2023/06/08 07:55:05;;;;;;;16.13;7.77;;;;;;;;;;5063810;28;20048;-60
2023/06/08 07:57:31;;;;;;;19.63;7.63;;;;;;;;;;5065935;28;20491;-60
2023/06/08 07:59:57;;;;;;;14.17;7.93;;;;;;;;;;5062218;28;20076;-60
2023/06/08 08:02:23;;;;;;;13.93;7.60;;;;;;;;;;5068784;28;20052;-60
2023/06/08 08:04:50;;;;;;;19.33;7.77;;;;;;;;;;5070747;28;20426;-60
2023/06/08 08:07:16;;;;;;;14.03;7.43;;;;;;;;;;5070192;28;20072;-60
2023/06/08 08:09:43;;;;;;;13.03;7.97;;;;;;;;;;5066693;28;20082;-60
2023/06/08 08:12:09;;;;;;;15.93;8.03;;;;;;;;;;5064821;28;20084;-60
2023/06/08 08:14:36;;;;;;;19.40;8.23;;;;;;;;;;5063039;28;20045;-60
2023/06/08 08:17:02;;;;;;;16.07;7.80;;;;;;;;;;5050223;28;20503;-60
2023/06/08 08:19:29;;;;;;;15.60;8.07;;;;;;;;;;5065487;28;20559;-60
2023/06/08 08:21:55;;;;;;;13.47;7.83;;;;;;;;;;5069481;28;20079;-60
2023/06/08 08:24:21;;;;;;;13.43;7.47;;;;;;;;;;5067746;28;20064;-60
2023/06/08 08:26:47;;;;;;;13.27;6.60;;;;;;;;;;5049742;28;20488;-60
2023/06/08 08:29:13;;;;;;;16.00;6.73;;;;;;;;;;5064742;28;20075;-60
2023/06/08 08:31:39;;;;;;;11.70;7.37;;;;;;;;;;5069151;28;20426;-60
2023/06/08 08:34:05;;;;;;;13.50;7.20;;;;;;;;;;5065172;28;20053;-61
2023/06/08 08:36:31;;;;;;;9.70;5.70;;;;;;;;;;5054777;28;20040;-61
2023/06/08 08:38:57;;;;;;;18.80;6.80;;;;;;;;;;5049715;28;20424;-61
2023/06/08 08:41:26;;;;;;;10.73;6.30;;;;;;;;;;5050427;28;20120;-62
2023/06/08 08:43:55;;;;;;;15.43;6.00;;;;;;;;;;5049030;28;20094;-62
2023/06/08 08:46:23;;;;;;;12.23;6.10;;;;;;;;;;5049784;28;20249;-62
2023/06/08 08:48:50;;;;;;;11.83;6.20;;;;;;;;;;5049388;28;20055;-62
2023/06/08 08:51:20;;;;;;;11.43;6.43;;;;;;;;;;5048797;28;20079;-62
2023/06/08 08:53:50;;;;;;;13.13;6.77;;;;;;;;;;5049619;28;20082;-62
2023/06/08 08:56:25;;;;;;;10.68;6.53;;;;;;;;;;5067556;28;20044;-62
2023/06/08 08:58:52;;;;;;;15.10;6.15;;;;;;;;;;5068364;28;20129;-62
2023/06/08 09:01:18;;;;;;;12.80;6.38;;;;;;;;;;5068217;28;20054;-62
2023/06/08 09:03:45;;;;;;;10.55;5.93;;;;;;;;;;5058580;28;20477;-62
2023/06/08 09:06:11;;;;;;;10.93;6.20;;;;;;;;;;5067235;28;20044;-62
2023/06/08 09:08:37;;;;;;;15.20;6.95;;;;;;;;;;5066902;28;20036;-62
2023/06/08 09:11:09;;;;;;;13.02;6.10;;;;;;;;;;5068757;28;20082;-62
2023/06/08 09:13:35;;;;;;;10.93;5.47;;;;;;;;;;5068517;28;20044;-62
2023/06/08 09:16:11;;;;;;;13.15;6.32;;;;;;;;;;5068817;28;20068;-62
2023/06/08 09:18:37;;;;;;;13.90;6.07;;;;;;;;;;5058803;28;20045;-62
2023/06/08 09:21:41;;;;;;;15.23;6.28;;;;;;;;;;5061176;28;20127;-62
2023/06/08 09:24:16;;;;;;;11.98;5.90;;;;;;;;;;4986889;28;20453;-62
2023/06/08 09:26:48;;;;;;;11.30;5.93;;;;;;;;;;5040470;28;20064;-62
2023/06/08 09:29:31;;;;;;;11.00;6.03;;;;;;;;;;5048697;28;20057;-62
2023/06/08 09:31:57;;;;;;;13.02;6.32;;;;;;;;;;5048157;28;20055;-62
2023/06/08 09:34:23;;;;;;;9.18;5.38;;;;;;;;;;5048514;28;20348;-62
2023/06/08 09:36:49;;;;;;;12.40;5.07;;;;;;;;;;5048363;28;20127;-62
2023/06/08 09:39:16;;;;;;;11.88;6.03;;;;;;;;;;5048275;28;20060;-62
2023/06/08 09:41:55;;;;;;;11.07;5.47;;;;;;;;;;5048239;28;20427;-62
2023/06/08 09:44:21;;;;;;;20.83;5.72;;;;;;;;;;5048340;28;20519;-62
2023/06/08 09:46:48;;;;;;;9.95;5.25;;;;;;;;;;5048236;28;20095;-62
2023/06/08 09:49:15;;;;;;;11.82;5.70;;;;;;;;;;5048430;28;20063;-62
2023/06/08 09:51:45;;;;;;;12.30;5.40;;;;;;;;;;5048370;28;20052;-62
2023/06/08 09:54:13;;;;;;;10.50;5.20;;;;;;;;;;5048023;28;20064;-62
2023/06/08 09:56:40;;;;;;;12.25;5.32;;;;;;;;;;5047737;28;20048;-62
2023/06/08 09:59:12;;;;;;;11.55;5.00;;;;;;;;;;5047918;28;20049;-62
2023/06/08 10:01:40;;;;;;;14.85;5.30;;;;;;;;;;5048206;28;20044;-62
2023/06/08 10:04:15;;;;;;;11.38;5.60;;;;;;;;;;5047851;28;20064;-62
2023/06/08 10:06:42;;;;;;;13.05;6.07;;;;;;;;;;5048213;28;20080;-62
2023/06/08 10:09:11;;;;;;;12.05;5.15;;;;;;;;;;5048163;28;20048;-62
2023/06/08 10:11:37;;;;;;;10.20;5.28;;;;;;;;;;5047569;28;20481;-62
2023/06/08 10:14:03;;;;;;;9.85;5.05;;;;;;;;;;5047806;28;20048;-62
2023/06/08 10:16:30;;;;;;;10.98;6.10;;;;;;;;;;5048066;28;20079;-62
2023/06/08 10:18:56;;;;;;;11.05;5.10;;;;;;;;;;5047470;28;20487;-62
2023/06/08 10:21:22;;;;;;;12.63;5.68;;;;;;;;;;5047677;28;20084;-62
2023/06/08 10:23:49;;;;;;;12.43;4.72;;;;;;;;;;5047532;28;20461;-62
2023/06/08 10:26:17;;;;;;;9.50;5.70;;;;;;;;;;5047554;28;20045;-62
2023/06/08 10:29:01;;;;;;;14.38;5.68;;;;;;;;;;5047561;28;20091;-62
2023/06/08 10:31:31;;;;;;;13.05;5.25;;;;;;;;;;5047623;28;20088;-60
2023/06/08 10:33:58;;;;;;;10.10;4.68;;;;;;;;;;5047305;28;20056;-61
2023/06/08 10:36:34;;;;;;;12.60;5.40;;;;;;;;;;5047419;28;20128;-60
2023/06/08 10:39:02;;;;;;;9.57;4.32;;;;;;;;;;5046852;28;20474;-60
2023/06/08 10:41:45;;;;;;;7.80;4.50;;;;;;;;;;5047611;28;20056;-61
2023/06/08 10:44:24;;;;;;;10.65;4.63;;;;;;;;;;5047241;28;20410;-61
2023/06/08 10:46:55;;;;;;;11.95;4.65;;;;;;;;;;5051353;28;20052;-62
2023/06/08 10:49:21;;;;;;;10.20;4.60;;;;;;;;;;5051780;28;20041;-62
2023/06/08 10:51:53;;;;;;;8.90;4.28;;;;;;;;;;5051576;28;20052;-62
2023/06/08 10:54:23;;;;;;;11.10;4.75;;;;;;;;;;5051649;28;20053;-62
2023/06/08 10:56:53;;;;;;;11.20;4.78;;;;;;;;;;5051531;28;20132;-62
2023/06/08 10:59:23;;;;;;;13.10;5.15;;;;;;;;;;5051010;28;20044;-62
2023/06/08 11:01:49;;;;;;;11.95;4.93;;;;;;;;;;5051626;28;20105;-62
2023/06/08 11:04:15;;;;;;;26.60;5.65;;;;;;;;;;5051756;28;20084;-62
2023/06/08 11:06:42;;;;;;;12.00;4.50;;;;;;;;;;5051360;28;20133;-63
2023/06/08 11:09:08;;;;;;;9.70;5.25;;;;;;;;;;5051675;28;20072;-62
2023/06/08 11:11:35;;;;;;;11.55;5.00;;;;;;;;;;5050912;28;20387;-62
2023/06/08 11:14:01;;;;;;;7.88;4.20;;;;;;;;;;5051019;28;20056;-62
2023/06/08 11:16:27;;;;;;;10.80;4.57;;;;;;;;;;5051226;28;20518;-62
2023/06/08 11:18:53;;;;;;;14.45;5.13;;;;;;;;;;5051092;28;20053;-62
2023/06/08 11:21:26;;;;;;;15.52;5.30;;;;;;;;;;5050582;28;20555;-62
2023/06/08 11:23:52;;;;;;;11.30;4.35;;;;;;;;;;5050954;28;20056;-62
2023/06/08 11:26:21;;;;;;;13.23;4.90;;;;;;;;;;5051073;28;20041;-62
2023/06/08 11:28:49;;;;;;;10.90;4.88;;;;;;;;;;5050993;28;20060;-62
2023/06/08 11:31:16;;;;;;;12.32;5.15;;;;;;;;;;5051048;28;20076;-62
2023/06/08 11:33:49;;;;;;;11.10;4.45;;;;;;;;;;5050475;28;20049;-62
2023/06/08 11:36:15;;;;;;;8.43;5.03;;;;;;;;;;5051124;28;20052;-62
2023/06/08 11:38:42;;;;;;;16.00;5.40;;;;;;;;;;5050546;28;20049;-62
2023/06/08 11:41:10;;;;;;;12.77;5.18;;;;;;;;;;5050744;28;20182;-62
2023/06/08 11:43:36;;;;;;;8.57;4.57;;;;;;;;;;5050822;28;20053;-62
2023/06/08 11:46:02;;;;;;;9.82;4.88;;;;;;;;;;5050218;28;20049;-62
2023/06/08 11:48:29;;;;;;;11.18;5.25;;;;;;;;;;5050492;28;20502;-62
2023/06/08 11:50:55;;;;;;;15.13;5.05;;;;;;;;;;5050433;28;20605;-62
2023/06/08 11:53:24;;;;;;;7.68;4.50;;;;;;;;;;5050650;28;20127;-62
2023/06/08 11:55:51;;;;;;;10.68;4.80;;;;;;;;;;5050076;28;20087;-62
2023/06/08 11:58:17;;;;;;;13.00;5.40;;;;;;;;;;5050343;28;20521;-62
2023/06/08 12:00:43;;;;;;;11.43;4.90;;;;;;;;;;5049903;28;20060;-62
2023/06/08 12:03:10;;;;;;;8.38;4.80;;;;;;;;;;5050424;28;20087;-62
2023/06/08 12:05:37;;;;;;;10.40;5.65;;;;;;;;;;5050423;28;20048;-62
2023/06/08 12:08:04;;;;;;;11.40;5.22;;;;;;;;;;5050120;28;20091;-62
2023/06/08 12:10:32;;;;;;;12.88;4.85;;;;;;;;;;5050286;28;20048;-62
2023/06/08 12:12:59;;;;;;;9.40;4.20;;;;;;;;;;5049697;28;20095;-62
2023/06/08 12:15:26;;;;;;;13.63;6.32;;;;;;;;;;5050452;28;20045;-62
2023/06/08 12:17:52;;;;;;;8.98;4.60;;;;;;;;;;5049952;28;20060;-62
2023/06/08 12:20:18;;;;;;;9.75;4.40;;;;;;;;;;5050066;28;20102;-62
2023/06/08 12:22:44;;;;;;;9.73;4.35;;;;;;;;;;5050219;28;20443;-62
2023/06/08 12:25:11;;;;;;;9.10;4.40;;;;;;;;;;5049478;28;20411;-62
2023/06/08 12:27:39;;;;;;;9.30;4.80;;;;;;;;;;5049925;28;20526;-62
2023/06/08 12:30:06;;;;;;;9.35;4.32;;;;;;;;;;5049799;28;20132;-62
2023/06/08 12:32:32;;;;;;;8.30;4.40;;;;;;;;;;5031982;28;20499;-63
2023/06/08 12:35:02;;;;;;;10.55;4.97;;;;;;;;;;5049255;28;20518;-62
2023/06/08 12:37:29;;;;;;;9.05;3.88;;;;;;;;;;5058840;28;20045;-62
2023/06/08 12:39:56;;;;;;;9.13;4.53;;;;;;;;;;5068615;28;20091;-62
2023/06/08 12:42:22;;;;;;;6.65;3.83;;;;;;;;;;5066276;28;20060;-62
2023/06/08 12:44:48;;;;;;;9.55;4.18;;;;;;;;;;5069066;28;20040;-62
2023/06/08 12:47:14;;;;;;;8.77;4.50;;;;;;;;;;5069559;28;20044;-62
2023/06/08 12:49:41;;;;;;;9.70;3.85;;;;;;;;;;5069375;28;20048;-62
2023/06/08 12:52:08;;;;;;;8.85;3.85;;;;;;;;;;5067707;28;20059;-62
2023/06/08 12:54:34;;;;;;;10.27;3.75;;;;;;;;;;5067649;28;20037;-62
2023/06/08 12:57:00;;;;;;;12.73;4.57;;;;;;;;;;5069245;28;20098;-62
2023/06/08 12:59:26;;;;;;;13.10;4.35;;;;;;;;;;5069048;28;20658;-63
2023/06/08 13:01:52;;;;;;;9.77;3.97;;;;;;;;;;5069190;28;20048;-63
2023/06/08 13:04:18;;;;;;;9.20;4.53;;;;;;;;;;5069171;28;20048;-62
2023/06/08 13:06:44;;;;;;;8.15;4.47;;;;;;;;;;5069128;28;20048;-62
2023/06/08 13:09:10;;;;;;;7.72;4.00;;;;;;;;;;5068560;28;20055;-62
2023/06/08 13:11:39;;;;;;;10.25;3.95;;;;;;;;;;5068891;28;20221;-62
2023/06/08 13:14:06;;;;;;;11.18;4.40;;;;;;;;;;5068822;28;20058;-63
2023/06/08 13:16:32;;;;;;;10.50;4.22;;;;;;;;;;5068991;28;20084;-62
2023/06/08 13:18:58;;;;;;;6.03;3.92;;;;;;;;;;5068102;28;20053;-62
2023/06/08 13:21:24;;;;;;;8.65;4.40;;;;;;;;;;5068841;28;20057;-62
2023/06/08 13:23:50;;;;;;;9.05;3.88;;;;;;;;;;5069005;28;20048;-62
2023/06/08 13:26:17;;;;;;;9.27;4.18;;;;;;;;;;5068518;28;20060;-63
2023/06/08 13:28:44;;;;;;;9.85;4.53;;;;;;;;;;5068290;28;20045;-63
2023/06/08 13:31:11;;;;;;;14.73;4.05;;;;;;;;;;5068629;28;20044;-63
2023/06/08 13:33:37;;;;;;;11.07;4.88;;;;;;;;;;5068302;28;20064;-62
2023/06/08 13:36:03;;;;;;;11.55;4.40;;;;;;;;;;5068435;28;20056;-63
2023/06/08 13:38:29;;;;;;;8.02;4.00;;;;;;;;;;5067926;28;20049;-62
2023/06/08 13:40:55;;;;;;;8.35;4.25;;;;;;;;;;5068373;28;20107;-62
2023/06/08 13:43:21;;;;;;;7.63;3.70;;;;;;;;;;5068632;28;20074;-63
2023/06/08 13:45:48;;;;;;;12.30;4.28;;;;;;;;;;5068106;28;20052;-63
2023/06/08 13:48:14;;;;;;;9.50;4.65;;;;;;;;;;5067535;28;20056;-63
2023/06/08 13:50:40;;;;;;;9.85;4.25;;;;;;;;;;5050786;28;20059;-63
2023/06/08 13:53:06;;;;;;;12.32;4.20;;;;;;;;;;5050235;28;20450;-62
2023/06/08 13:55:32;;;;;;;8.38;3.45;;;;;;;;;;5067951;28;20094;-62
2023/06/08 13:57:58;;;;;;;9.27;4.18;;;;;;;;;;5068088;28;20521;-63
2023/06/08 14:00:24;;;;;;;7.65;3.90;;;;;;;;;;5068236;28;20040;-63
2023/06/08 14:02:50;;;;;;;9.73;4.00;;;;;;;;;;5068227;28;20083;-63
2023/06/08 14:05:20;;;;;;;9.75;4.25;;;;;;;;;;5068216;28;20048;-63
2023/06/08 14:07:46;;;;;;;8.52;3.95;;;;;;;;;;5068432;28;20052;-63
2023/06/08 14:10:12;;;;;;;7.28;3.85;;;;;;;;;;5067502;28;20132;-63
2023/06/08 14:12:39;;;;;;;10.57;4.30;;;;;;;;;;5068110;28;20052;-63
2023/06/08 14:15:07;;;;;;;10.23;4.10;;;;;;;;;;5068183;28;20052;-63
2023/06/08 14:17:33;;;;;;;7.53;3.80;;;;;;;;;;5068345;28;20048;-63
2023/06/08 14:19:59;;;;;;;8.95;4.50;;;;;;;;;;5067990;28;20051;-63
2023/06/08 14:22:26;;;;;;;8.88;4.15;;;;;;;;;;5067370;28;20490;-62
2023/06/08 14:24:52;;;;;;;7.93;3.97;;;;;;;;;;5067748;28;20123;-63
2023/06/08 14:27:18;;;;;;;8.30;3.72;;;;;;;;;;5068028;28;20036;-62